Weather reports worldwide

Advertisment
Leuchtturm Alte Weser, Germany (10124): temperature & dewpoint: 26.10.2020 02:00:00 - 01.11.2020 02:00:00 (CET)Leuchtturm Alte Weser, Germany (10124): wind speed & gusts: 26.10.2020 02:00:00 - 01.11.2020 02:00:00 (CET)Leuchtturm Alte Weser, Germany (10124): wind direction: 26.10.2020 02:00:00 - 01.11.2020 02:00:00 (CET)Leuchtturm Alte Weser, Germany (10124): reduced air pressure: 26.10.2020 02:00:00 - 01.11.2020 02:00:00 (CET)Leuchtturm Alte Weser, Germany (10124): sunshine duration: 26.10.2020 02:00:00 - 01.11.2020 02:00:00 (CET)
Date & Time tt [°C] td [°C] ff [km/h] ff [kn] fx [km/h] fx [kn] dd ppp [hPa] sd [min]
01.11.2020 02:00:00 12,8 11,9 32 18 47 25 SW 1010,8 0
01.11.2020 01:00:00 13,2 12,1 36 19 - - SSW 1010,6 0
01.11.2020 00:00:00 12,7 12,2 40 21 50 27 SSW 1010,3 0
31.10.2020 23:00:00 12,6 11,7 40 21 50 27 S 1010,4 0
31.10.2020 22:00:00 12,4 11,0 43 23 - - S 1010,4 0
31.10.2020 21:00:00 12,5 10,8 43 23 50 27 SSE 1010,7 0
31.10.2020 20:00:00 12,6 10,9 43 23 50 27 SSE 1011,4 0
31.10.2020 19:00:00 12,8 11,7 40 21 - - SSE 1012,2 0
31.10.2020 18:00:00 13,2 12,0 40 21 - - SSE 1012,9 0
31.10.2020 17:00:00 13,0 12,4 32 18 - - SSE 1013,9 0
31.10.2020 16:00:00 13,4 12,3 36 19 - - S 1014,7 0
31.10.2020 15:00:00 13,7 12,5 29 16 - - S 1016,0 0
31.10.2020 14:00:00 13,5 12,9 25 14 - - S 1016,7 0
31.10.2020 13:00:00 13,9 12,8 32 18 - - S 1017,1 0
31.10.2020 12:00:00 13,6 13,6 22 12 - - S 1018,2 0
31.10.2020 11:00:00 13,2 13,2 22 12 - - SSW 1018,9 0
31.10.2020 10:00:00 13,3 13,3 22 12 - - SSW 1019,4 0
31.10.2020 09:00:00 12,9 12,9 11 6 - - SSE 1019,8 0
31.10.2020 08:00:00 12,7 12,7 7 4 - - SW 1019,8 0
31.10.2020 07:00:00 12,5 - 11 6 - - W 1019,5 0
31.10.2020 06:00:00 12,6 - 14 8 - - W 1019,8 0
31.10.2020 05:00:00 12,6 12,6 22 12 - - W 1019,8 0
31.10.2020 04:00:00 13,0 13,0 29 16 - - WSW 1019,4 0
31.10.2020 03:00:00 13,0 13,0 29 16 - - WSW 1019,1 0
31.10.2020 02:00:00 13,4 13,4 36 19 - - WSW 1018,8 0
31.10.2020 01:00:00 13,4 13,4 36 19 - - WSW 1018,6 0
31.10.2020 00:00:00 13,3 13,3 36 19 50 27 WSW 1018,4 0
30.10.2020 23:00:00 13,3 13,3 40 21 47 25 WSW 1017,9 0
30.10.2020 22:00:00 13,4 13,4 40 21 - - WSW 1017,2 0
30.10.2020 21:00:00 13,2 13,2 40 21 - - WSW 1016,8 0
30.10.2020 20:00:00 12,9 12,9 36 19 47 25 WSW 1016,6 0
30.10.2020 19:00:00 12,9 12,9 40 21 - - WSW 1016,2 0
30.10.2020 18:00:00 12,9 12,9 43 23 50 27 WSW 1015,6 0
30.10.2020 17:00:00 12,8 12,8 43 23 54 29 WSW 1015,2 0
30.10.2020 16:00:00 13,0 13,0 47 25 - - W 1014,5 0
30.10.2020 15:00:00 13,2 13,2 50 27 65 35 WSW 1013,9 0
30.10.2020 14:00:00 13,5 13,5 54 29 65 35 WSW 1013,3 0
30.10.2020 13:00:00 13,8 12,9 50 27 - - WSW 1012,7 0
30.10.2020 12:00:00 13,6 13,6 50 27 65 35 WSW 1012,3 0
30.10.2020 11:00:00 13,3 13,3 61 33 72 39 WSW 1011,5 0
30.10.2020 10:00:00 13,0 13,0 47 25 - - WSW 1011,2 0
30.10.2020 09:00:00 12,8 12,8 47 25 58 31 WSW 1010,7 0
30.10.2020 08:00:00 12,9 12,9 47 25 54 29 WSW 1010,2 0
30.10.2020 07:00:00 12,9 12,9 43 23 - - WSW 1009,8 0
30.10.2020 06:00:00 13,4 12,7 50 27 61 33 WSW 1009,3 0
30.10.2020 05:00:00 13,0 13,0 50 27 61 33 WSW 1009,2 0
30.10.2020 04:00:00 13,0 13,0 43 23 - - WSW 1009,1 0
30.10.2020 03:00:00 12,1 12,1 36 19 - - SW 1009,2 0
30.10.2020 02:00:00 11,2 11,2 36 19 - - SSW 1009,5 0
30.10.2020 01:00:00 11,0 11,0 40 21 - - S 1009,8 0
30.10.2020 00:00:00 10,9 10,7 40 21 47 25 S 1010,0 0
29.10.2020 23:00:00 10,4 10,3 36 19 47 25 S 1011,0 0
29.10.2020 22:00:00 10,3 9,8 36 19 - - S 1011,7 0
29.10.2020 21:00:00 10,1 9,7 32 18 - - SSW 1012,5 0
29.10.2020 20:00:00 10,3 8,8 32 18 - - SSW 1013,0 0
29.10.2020 19:00:00 10,7 7,9 32 18 - - SW 1013,0 0
29.10.2020 18:00:00 10,8 8,2 32 18 50 27 SW 1013,0 0
29.10.2020 17:00:00 11,2 8,0 43 23 61 33 WSW 1012,5 0
29.10.2020 16:00:00 11,1 8,2 54 29 - - WSW 1012,1 0
29.10.2020 15:00:00 10,8 9,0 47 25 68 37 W 1011,8 12
29.10.2020 14:00:00 11,8 8,2 54 29 61 33 WSW 1010,9 30
29.10.2020 13:00:00 10,6 7,6 40 21 - - WSW 1010,6 18
29.10.2020 12:00:00 11,0 7,0 47 25 72 39 WSW 1009,9 18
29.10.2020 11:00:00 11,0 8,1 47 25 68 37 WSW 1008,8 54
29.10.2020 10:00:00 11,3 7,4 50 27 - - WSW 1007,6 48
29.10.2020 09:00:00 9,6 8,0 50 27 65 35 SW 1006,6 6
29.10.2020 08:00:00 8,7 7,8 43 23 65 35 SW 1005,9 0
29.10.2020 07:00:00 9,2 6,9 58 31 - - WSW 1004,6 0
29.10.2020 06:00:00 9,4 7,4 50 27 68 37 WSW 1004,2 0
29.10.2020 05:00:00 9,9 6,5 47 25 101 54 WSW 1002,9 0
29.10.2020 04:00:00 7,9 6,6 65 35 - - WSW 1002,1 0
29.10.2020 03:00:00 10,4 8,3 54 29 61 33 SW 1001,5 0
29.10.2020 02:00:00 10,2 8,6 40 21 50 27 SW 1001,7 0
29.10.2020 01:00:00 10,2 8,5 40 21 - - SSW 1002,0 0
29.10.2020 00:00:00 10,1 8,4 47 25 54 29 SSW 1001,9 0
28.10.2020 23:00:00 10,4 8,3 40 21 50 27 SSW 1002,4 0
28.10.2020 22:00:00 10,3 7,7 40 21 - - SSW 1003,0 0
28.10.2020 21:00:00 10,4 7,9 36 19 50 27 SSW 1003,6 0
28.10.2020 20:00:00 10,7 8,0 43 23 50 27 SSW 1003,7 0
28.10.2020 19:00:00 10,9 7,1 40 21 - - SSW 1004,0 0
28.10.2020 18:00:00 11,6 7,1 47 25 58 31 SSW 1003,8 0
28.10.2020 17:00:00 12,2 7,6 47 25 58 31 SSW 1003,5 0
28.10.2020 16:00:00 12,6 8,1 47 25 - - SW 1003,6 18
28.10.2020 15:00:00 12,6 8,0 40 21 58 31 SW 1003,7 30
28.10.2020 14:00:00 12,6 8,0 50 27 61 33 SW 1003,7 54
28.10.2020 13:00:00 12,1 7,8 47 25 - - SSW 1003,7 60
28.10.2020 12:00:00 11,7 7,5 43 23 54 29 SSW 1003,5 54
28.10.2020 11:00:00 11,3 7,6 43 23 50 27 SSW 1003,2 30
28.10.2020 10:00:00 11,1 8,6 36 19 - - SSW 1002,9 0
28.10.2020 09:00:00 10,6 9,2 40 21 50 27 SSW 1003,2 6
28.10.2020 08:00:00 10,6 9,3 43 23 47 25 SW 1002,3 0
28.10.2020 07:00:00 10,6 9,6 40 21 - - SW 1001,3 0
28.10.2020 06:00:00 10,8 9,6 40 21 50 27 SW 1000,6 0
28.10.2020 05:00:00 11,1 10,4 43 23 50 27 SW 999,9 0
28.10.2020 04:00:00 11,3 10,4 43 23 - - SW 999,2 0
28.10.2020 03:00:00 10,6 10,6 47 25 61 33 SSW 998,4 0
28.10.2020 02:00:00 10,1 9,8 54 29 65 35 S 998,0 0
28.10.2020 01:00:00 10,1 9,1 54 29 - - S 997,8 0
28.10.2020 00:00:00 10,7 7,9 54 29 72 39 S 998,0 0
27.10.2020 23:00:00 11,3 7,4 54 29 72 39 S 998,5 0
27.10.2020 22:00:00 11,4 7,0 61 33 - - S 999,2 0
27.10.2020 21:00:00 11,4 7,3 50 27 58 31 S 999,8 0
27.10.2020 20:00:00 11,2 7,5 43 23 58 31 S 1000,3 0
27.10.2020 19:00:00 11,0 7,9 47 25 - - S 1001,0 0
27.10.2020 18:00:00 11,1 7,9 43 23 54 29 SSW 1001,3 0
27.10.2020 17:00:00 11,3 7,8 47 25 58 31 SSW 1001,2 0
27.10.2020 16:00:00 11,1 6,7 47 25 - - SSW 1001,4 12
27.10.2020 15:00:00 11,1 7,3 43 23 61 33 SSW 1001,7 0
27.10.2020 14:00:00 11,0 6,9 47 25 61 33 SSW 1001,8 42
27.10.2020 13:00:00 10,8 7,2 47 25 - - SSW 1001,9 30
27.10.2020 12:00:00 10,7 7,7 47 25 58 31 SSW 1002,1 42
27.10.2020 11:00:00 10,3 7,8 47 25 65 35 SW 1001,8 36
27.10.2020 10:00:00 9,5 7,7 54 29 - - SSW 1001,4 30
27.10.2020 09:00:00 9,7 8,2 47 25 61 33 SSW 1001,0 42
27.10.2020 08:00:00 9,3 7,8 54 29 65 35 SSW 1000,6 0
27.10.2020 07:00:00 9,2 7,6 47 25 - - SSW 1000,3 0
27.10.2020 06:00:00 9,1 7,8 47 25 54 29 SSW 1000,1 0
27.10.2020 05:00:00 9,4 7,8 43 23 50 27 SSW 999,8 0
27.10.2020 04:00:00 9,4 7,9 43 23 - - SSW 999,2 0
27.10.2020 03:00:00 9,4 8,0 47 25 58 31 SSW 999,3 0
27.10.2020 02:00:00 9,5 7,3 47 25 61 33 SSW 999,0 0
27.10.2020 01:00:00 9,8 7,3 50 27 - - SSW 999,0 0
27.10.2020 00:00:00 10,0 7,3 50 27 61 33 SSW 999,0 0
26.10.2020 23:00:00 10,2 7,2 47 25 58 31 SSW 999,3 0
26.10.2020 22:00:00 10,5 7,5 47 25 - - S 999,5 0
26.10.2020 21:00:00 10,4 7,1 47 25 61 33 SSW 999,5 0
26.10.2020 20:00:00 10,8 7,5 43 23 58 31 S 999,0 0
26.10.2020 19:00:00 10,8 7,2 40 21 - - SSW 999,3 0
26.10.2020 18:00:00 11,1 6,8 40 21 47 25 SSW 999,3 0
26.10.2020 17:00:00 11,2 6,2 36 19 - - SSW 999,0 12
26.10.2020 16:00:00 11,3 6,3 36 19 - - SSW 999,2 36
26.10.2020 15:00:00 11,5 6,9 36 19 47 25 SSW 999,1 60
26.10.2020 14:00:00 11,2 7,0 40 21 50 27 SW 998,9 18
26.10.2020 13:00:00 10,9 7,7 32 18 - - SSW 999,3 6
26.10.2020 12:00:00 10,8 8,2 40 21 47 25 SSW 999,7 6
26.10.2020 11:00:00 10,5 8,3 32 18 - - SSW 999,1 0
26.10.2020 10:00:00 10,5 8,9 32 18 - - SSW 999,4 0
26.10.2020 09:00:00 10,5 8,9 40 21 50 27 SSW 999,4 0
26.10.2020 08:00:00 11,0 9,1 32 18 47 25 SSW 998,8 0
26.10.2020 07:00:00 11,0 9,2 36 19 - - SSW 998,7 0
26.10.2020 06:00:00 10,9 9,6 36 19 47 25 S 998,7 0
26.10.2020 05:00:00 10,7 9,8 36 19 - - S 999,0 0
26.10.2020 04:00:00 10,7 9,5 32 18 - - SSW 998,9 0
26.10.2020 03:00:00 10,9 9,7 36 19 - - SSW 999,1 0
26.10.2020 02:00:00 11,1 9,6 36 19 47 25 SSW 999,6 0

tt = temperature
td = dewpoint
ff = wind speed
fx = gusts
dd = wind direction
ppp = reduced air pressure
sd = sunshine duration

Next stations